sensor_id;sensor_type;location;lat;lon;timestamp;pressure;altitude;pressure_sealevel;temperature
28305;BMP280;15569;42.652;23.040;2023-04-03T00:00:44;92362.03;;;16.54
28305;BMP280;15569;42.652;23.040;2023-04-03T00:03:09;92361.34;;;16.58
28305;BMP280;15569;42.652;23.040;2023-04-03T00:05:35;92366.31;;;16.67
28305;BMP280;15569;42.652;23.040;2023-04-03T00:08:00;92357.69;;;16.05
28305;BMP280;15569;42.652;23.040;2023-04-03T00:10:27;92369.81;;;16.30
28305;BMP280;15569;42.652;23.040;2023-04-03T00:12:53;92363.78;;;16.38
28305;BMP280;15569;42.652;23.040;2023-04-03T00:15:18;92373.56;;;16.49
28305;BMP280;15569;42.652;23.040;2023-04-03T00:17:43;92367.44;;;16.50
28305;BMP280;15569;42.652;23.040;2023-04-03T00:20:09;92370.19;;;16.52
28305;BMP280;15569;42.652;23.040;2023-04-03T00:22:35;92362.75;;;16.59
28305;BMP280;15569;42.652;23.040;2023-04-03T00:25:00;92368.94;;;16.59
28305;BMP280;15569;42.652;23.040;2023-04-03T00:27:26;92370.41;;;16.64
28305;BMP280;15569;42.652;23.040;2023-04-03T00:29:51;92365.56;;;16.63
28305;BMP280;15569;42.652;23.040;2023-04-03T00:32:17;92360.72;;;16.59
28305;BMP280;15569;42.652;23.040;2023-04-03T00:34:42;92362.88;;;16.65
28305;BMP280;15569;42.652;23.040;2023-04-03T00:37:07;92358.09;;;16.67
28305;BMP280;15569;42.652;23.040;2023-04-03T00:39:33;92360.84;;;16.67
28305;BMP280;15569;42.652;23.040;2023-04-03T00:41:58;92360.84;;;16.67
28305;BMP280;15569;42.652;23.040;2023-04-03T00:46:59;92362.16;;;16.64
28305;BMP280;15569;42.652;23.040;2023-04-03T00:49:25;92362.13;;;16.62
28305;BMP280;15569;42.652;23.040;2023-04-03T00:51:51;92362.88;;;16.65
28305;BMP280;15569;42.652;23.040;2023-04-03T00:54:17;92369.13;;;16.71
28305;BMP280;15569;42.652;23.040;2023-04-03T00:56:43;92366.34;;;16.69
28305;BMP280;15569;42.652;23.040;2023-04-03T00:59:20;92357.28;;;16.61
28305;BMP280;15569;42.652;23.040;2023-04-03T01:01:48;92360.75;;;16.63
28305;BMP280;15569;42.652;23.040;2023-04-03T01:04:32;92360.75;;;16.63
28305;BMP280;15569;42.652;23.040;2023-04-03T01:07:22;92368.34;;;16.65
28305;BMP280;15569;42.652;23.040;2023-04-03T01:09:47;92355.22;;;16.59
28305;BMP280;15569;42.652;23.040;2023-04-03T01:12:34;92342.81;;;16.54
28305;BMP280;15569;42.652;23.040;2023-04-03T01:15:10;92355.84;;;16.56
28305;BMP280;15569;42.652;23.040;2023-04-03T01:17:39;92357.91;;;16.55
28305;BMP280;15569;42.652;23.040;2023-04-03T01:25:54;92368.72;;;16.45
28305;BMP280;15569;42.652;23.040;2023-04-03T01:28:22;92362.53;;;16.47
28305;BMP280;15569;42.652;23.040;2023-04-03T01:33:32;92365.28;;;16.47
28305;BMP280;15569;42.652;23.040;2023-04-03T01:35:57;92348.66;;;16.37
28305;BMP280;15569;42.652;23.040;2023-04-03T01:38:23;92364.66;;;16.48
28305;BMP280;15569;42.652;23.040;2023-04-03T01:40:48;92368.78;;;16.49
28305;BMP280;15569;42.652;23.040;2023-04-03T01:43:14;92357.66;;;16.41
28305;BMP280;15569;42.652;23.040;2023-04-03T01:45:39;92367.28;;;16.42
28305;BMP280;15569;42.652;23.040;2023-04-03T01:48:05;92356.88;;;16.35
28305;BMP280;15569;42.652;23.040;2023-04-03T01:50:30;92365.09;;;16.37
28305;BMP280;15569;42.652;23.040;2023-04-03T01:52:57;92355.47;;;16.34
28305;BMP280;15569;42.652;23.040;2023-04-03T01:55:22;92345.09;;;16.28
28305;BMP280;15569;42.652;23.040;2023-04-03T01:57:48;92352.03;;;16.33
28305;BMP280;15569;42.652;23.040;2023-04-03T02:00:13;92349.25;;;16.31
28305;BMP280;15569;42.652;23.040;2023-04-03T02:02:39;92351.34;;;16.33
28305;BMP280;15569;42.652;23.040;2023-04-03T02:05:05;92344.41;;;16.30
28305;BMP280;15569;42.652;23.040;2023-04-03T02:07:31;92329.94;;;16.25
28305;BMP280;15569;42.652;23.040;2023-04-03T02:09:56;92336.91;;;16.30
28305;BMP280;15569;42.652;23.040;2023-04-03T02:12:21;92346.56;;;16.33
28305;BMP280;15569;42.652;23.040;2023-04-03T02:14:47;92344.50;;;16.34
28305;BMP280;15569;42.652;23.040;2023-04-03T02:17:12;92338.22;;;16.27
28305;BMP280;15569;42.652;23.040;2023-04-03T02:19:38;92343.75;;;16.29
28305;BMP280;15569;42.652;23.040;2023-04-03T02:22:04;92336.16;;;16.28
28305;BMP280;15569;42.652;23.040;2023-04-03T02:24:30;92334.72;;;16.24
28305;BMP280;15569;42.652;23.040;2023-04-03T02:26:55;92325.78;;;16.22
28305;BMP280;15569;42.652;23.040;2023-04-03T02:29:21;92332.69;;;16.25
28305;BMP280;15569;42.652;23.040;2023-04-03T02:31:47;92333.97;;;16.20
28305;BMP280;15569;42.652;23.040;2023-04-03T02:34:12;92333.31;;;16.21
28305;BMP280;15569;42.652;23.040;2023-04-03T02:36:38;92342.91;;;16.20
28305;BMP280;15569;42.652;23.040;2023-04-03T02:39:03;92342.22;;;16.22
28305;BMP280;15569;42.652;23.040;2023-04-03T02:41:29;92324.97;;;16.13
28305;BMP280;15569;42.652;23.040;2023-04-03T02:44:00;92309.00;;;16.04
28305;BMP280;15569;42.652;23.040;2023-04-03T02:46:26;92327.72;;;16.15
28305;BMP280;15569;42.652;23.040;2023-04-03T02:48:51;92304.91;;;16.05
28305;BMP280;15569;42.652;23.040;2023-04-03T02:51:17;92314.00;;;16.13
28305;BMP280;15569;42.652;23.040;2023-04-03T02:53:42;92325.03;;;16.19
28305;BMP280;15569;42.652;23.040;2023-04-03T02:56:08;92318.81;;;16.15
28305;BMP280;15569;42.652;23.040;2023-04-03T02:58:33;92305.66;;;16.07
28305;BMP280;15569;42.652;23.040;2023-04-03T03:00:59;92318.78;;;16.13
28305;BMP280;15569;42.652;23.040;2023-04-03T03:03:24;92317.31;;;16.10
28305;BMP280;15569;42.652;23.040;2023-04-03T03:05:49;92307.06;;;16.08
28305;BMP280;15569;42.652;23.040;2023-04-03T03:08:15;92314.56;;;16.08
28305;BMP280;15569;42.652;23.040;2023-04-03T03:10:40;92304.97;;;16.09
28305;BMP280;15569;42.652;23.040;2023-04-03T03:13:06;92302.94;;;16.09
28305;BMP280;15569;42.652;23.040;2023-04-03T03:15:31;92306.34;;;16.08
28305;BMP280;15569;42.652;23.040;2023-04-03T03:17:56;92299.41;;;16.03
28305;BMP280;15569;42.652;23.040;2023-04-03T03:20:22;92305.56;;;16.03
28305;BMP280;15569;42.652;23.040;2023-04-03T03:22:47;92302.16;;;16.03
28305;BMP280;15569;42.652;23.040;2023-04-03T03:25:13;92285.59;;;15.97
28305;BMP280;15569;42.652;23.040;2023-04-03T03:27:38;92303.63;;;16.08
28305;BMP280;15569;42.652;23.040;2023-04-03T03:30:04;92294.59;;;16.03
28305;BMP280;15569;42.652;23.040;2023-04-03T03:32:30;92302.94;;;16.09
28305;BMP280;15569;42.652;23.040;2023-04-03T03:34:56;92296.69;;;16.05
28305;BMP280;15569;42.652;23.040;2023-04-03T03:37:21;92296.72;;;16.07
28305;BMP280;15569;42.652;23.040;2023-04-03T03:39:46;92280.81;;;15.97
28305;BMP280;15569;42.652;23.040;2023-04-03T03:42:12;92292.53;;;16.02
28305;BMP280;15569;42.652;23.040;2023-04-03T03:44:37;92282.84;;;15.97
28305;BMP280;15569;42.652;23.040;2023-04-03T03:47:03;92282.88;;;15.99
28305;BMP280;15569;42.652;23.040;2023-04-03T03:49:28;92288.34;;;15.99
28305;BMP280;15569;42.652;23.040;2023-04-03T03:51:54;92294.47;;;15.95
28305;BMP280;15569;42.652;23.040;2023-04-03T03:54:20;92295.78;;;15.92
28305;BMP280;15569;42.652;23.040;2023-04-03T03:56:45;92286.91;;;15.94
28305;BMP280;15569;42.652;23.040;2023-04-03T03:59:12;92279.34;;;15.92
28305;BMP280;15569;42.652;23.040;2023-04-03T04:01:37;92290.38;;;15.96
28305;BMP280;15569;42.652;23.040;2023-04-03T04:04:03;92281.47;;;15.26
28305;BMP280;15569;42.652;23.040;2023-04-03T04:06:28;92276.09;;;15.31
28305;BMP280;15569;42.652;23.040;2023-04-03T04:08:54;92302.59;;;14.90
28305;BMP280;15569;42.652;23.040;2023-04-03T04:11:19;92294.31;;;14.29
28305;BMP280;15569;42.652;23.040;2023-04-03T04:13:46;92306.03;;;12.42
28305;BMP280;15569;42.652;23.040;2023-04-03T04:16:11;92309.56;;;13.85
28305;BMP280;15569;42.652;23.040;2023-04-03T04:18:37;92314.09;;;13.50
28305;BMP280;15569;42.652;23.040;2023-04-03T04:21:02;92321.53;;;14.25
28305;BMP280;15569;42.652;23.040;2023-04-03T04:23:27;92324.97;;;14.53
28305;BMP280;15569;42.652;23.040;2023-04-03T04:25:53;92306.94;;;14.70
28305;BMP280;15569;42.652;23.040;2023-04-03T04:28:18;92316.34;;;14.92
28305;BMP280;15569;42.652;23.040;2023-04-03T04:30:44;92298.69;;;14.99
28305;BMP280;15569;42.652;23.040;2023-04-03T04:33:10;92307.41;;;15.21
28305;BMP280;15569;42.652;23.040;2023-04-03T04:35:36;92305.44;;;15.26
28305;BMP280;15569;42.652;23.040;2023-04-03T04:38:01;92315.88;;;15.36
28305;BMP280;15569;42.652;23.040;2023-04-03T04:40:28;92323.03;;;15.49
28305;BMP280;15569;42.652;23.040;2023-04-03T04:42:53;92326.56;;;15.55
28305;BMP280;15569;42.652;23.040;2023-04-03T04:45:19;92322.53;;;15.58
28305;BMP280;15569;42.652;23.040;2023-04-03T04:47:44;92319.84;;;15.62
28305;BMP280;15569;42.652;23.040;2023-04-03T04:50:10;92331.00;;;15.72
28305;BMP280;15569;42.652;23.040;2023-04-03T04:52:36;92342.81;;;15.79
28305;BMP280;15569;42.652;23.040;2023-04-03T04:55:02;92352.34;;;15.76
28305;BMP280;15569;42.652;23.040;2023-04-03T04:57:28;92353.75;;;15.79
28305;BMP280;15569;42.652;23.040;2023-04-03T04:59:53;92355.88;;;15.82
28305;BMP280;15569;42.652;23.040;2023-04-03T05:02:19;92360.78;;;15.88
28305;BMP280;15569;42.652;23.040;2023-04-03T05:04:44;92349.75;;;15.84
28305;BMP280;15569;42.652;23.040;2023-04-03T05:07:10;92348.44;;;15.87
28305;BMP280;15569;42.652;23.040;2023-04-03T05:09:35;92355.38;;;15.92
28305;BMP280;15569;42.652;23.040;2023-04-03T05:12:01;92362.34;;;15.99
28305;BMP280;15569;42.652;23.040;2023-04-03T05:14:28;92360.31;;;15.99
28305;BMP280;15569;42.652;23.040;2023-04-03T05:16:53;92359.72;;;16.03
28305;BMP280;15569;42.652;23.040;2023-04-03T05:19:22;92359.75;;;16.05
28305;BMP280;15569;42.652;23.040;2023-04-03T05:21:47;92363.06;;;15.99
28305;BMP280;15569;42.652;23.040;2023-04-03T05:24:14;92365.81;;;15.99
28305;BMP280;15569;42.652;23.040;2023-04-03T05:26:41;92378.22;;;16.04
28305;BMP280;15569;42.652;23.040;2023-04-03T05:29:06;92359.63;;;15.99
28305;BMP280;15569;42.652;23.040;2023-04-03T05:31:32;92355.50;;;15.98
28305;BMP280;15569;42.652;23.040;2023-04-03T05:33:58;92357.00;;;16.05
28305;BMP280;15569;42.652;23.040;2023-04-03T05:36:23;92349.59;;;16.11
28305;BMP280;15569;42.652;23.040;2023-04-03T05:38:49;92354.56;;;16.21
28305;BMP280;15569;42.652;23.040;2023-04-03T05:41:15;92340.81;;;16.19
28305;BMP280;15569;42.652;23.040;2023-04-03T05:43:40;92345.97;;;16.39
28305;BMP280;15569;42.652;23.040;2023-04-03T05:46:14;92330.22;;;16.41
28305;BMP280;15569;42.652;23.040;2023-04-03T05:48:40;92344.75;;;16.48
28305;BMP280;15569;42.652;23.040;2023-04-03T05:51:07;92339.59;;;15.90
28305;BMP280;15569;42.652;23.040;2023-04-03T05:53:35;92345.06;;;15.55
28305;BMP280;15569;42.652;23.040;2023-04-03T05:56:04;92347.69;;;14.87
28305;BMP280;15569;42.652;23.040;2023-04-03T05:58:30;92326.03;;;14.40
28305;BMP280;15569;42.652;23.040;2023-04-03T06:00:55;92326.84;;;14.19
28305;BMP280;15569;42.652;23.040;2023-04-03T06:03:21;92333.50;;;14.12
28305;BMP280;15569;42.652;23.040;2023-04-03T06:05:46;92333.44;;;13.84
28305;BMP280;15569;42.652;23.040;2023-04-03T06:08:12;92323.50;;;13.95
28305;BMP280;15569;42.652;23.040;2023-04-03T06:10:38;92320.75;;;13.95
28305;BMP280;15569;42.652;23.040;2023-04-03T06:13:03;92293.97;;;13.89
28305;BMP280;15569;42.652;23.040;2023-04-03T06:15:28;92316.19;;;13.78
28305;BMP280;15569;42.652;23.040;2023-04-03T06:17:54;92312.56;;;13.95
28305;BMP280;15569;42.652;23.040;2023-04-03T06:20:20;92310.00;;;14.01
28305;BMP280;15569;42.652;23.040;2023-04-03T06:22:46;92316.59;;;14.19
28305;BMP280;15569;42.652;23.040;2023-04-03T06:25:11;92319.34;;;14.19
28305;BMP280;15569;42.652;23.040;2023-04-03T06:27:37;92322.31;;;14.27
28305;BMP280;15569;42.652;23.040;2023-04-03T06:30:04;92326.16;;;14.18
28305;BMP280;15569;42.652;23.040;2023-04-03T06:32:30;92330.75;;;14.12
28305;BMP280;15569;42.652;23.040;2023-04-03T06:34:55;92328.84;;;13.91
28305;BMP280;15569;42.652;23.040;2023-04-03T06:37:22;92320.88;;;13.99
28305;BMP280;15569;42.652;23.040;2023-04-03T06:39:51;92328.84;;;13.91
28305;BMP280;15569;42.652;23.040;2023-04-03T06:42:16;92333.38;;;13.82
28305;BMP280;15569;42.652;23.040;2023-04-03T06:44:42;92324.19;;;13.95
28305;BMP280;15569;42.652;23.040;2023-04-03T06:47:11;92312.78;;;13.77
28305;BMP280;15569;42.652;23.040;2023-04-03T06:49:36;92324.31;;;13.99
28305;BMP280;15569;42.652;23.040;2023-04-03T06:52:02;92319.91;;;13.88
28305;BMP280;15569;42.652;23.040;2023-04-03T06:54:28;92320.63;;;13.65
28305;BMP280;15569;42.652;23.040;2023-04-03T06:56:53;92336.94;;;13.37
28305;BMP280;15569;42.652;23.040;2023-04-03T06:59:18;92330.91;;;13.67
28305;BMP280;15569;42.652;23.040;2023-04-03T07:01:44;92342.56;;;13.69
28305;BMP280;15569;42.652;23.040;2023-04-03T07:04:10;92339.94;;;13.97
28305;BMP280;15569;42.652;23.040;2023-04-03T07:06:35;92335.56;;;13.86
28305;BMP280;15569;42.652;23.040;2023-04-03T07:09:02;92321.19;;;13.85
28305;BMP280;15569;42.652;23.040;2023-04-03T07:11:28;92325.44;;;14.16
28305;BMP280;15569;42.652;23.040;2023-04-03T07:13:53;92330.16;;;14.41
28305;BMP280;15569;42.652;23.040;2023-04-03T07:16:19;92321.28;;;14.15
28305;BMP280;15569;42.652;23.040;2023-04-03T07:18:45;92326.31;;;14.52
28305;BMP280;15569;42.652;23.040;2023-04-03T07:21:10;92329.09;;;14.54
28305;BMP280;15569;42.652;23.040;2023-04-03T07:23:36;92320.75;;;14.48
28305;BMP280;15569;42.652;23.040;2023-04-03T07:26:02;92322.72;;;14.73
28305;BMP280;15569;42.652;23.040;2023-04-03T07:28:28;92320.06;;;14.75
28305;BMP280;15569;42.652;23.040;2023-04-03T07:31:03;92314.44;;;14.99
28305;BMP280;15569;42.652;23.040;2023-04-03T07:33:28;92319.56;;;14.85
28305;BMP280;15569;42.652;23.040;2023-04-03T07:35:54;92313.88;;;15.06
28305;BMP280;15569;42.652;23.040;2023-04-03T07:38:20;92323.84;;;15.23
28305;BMP280;15569;42.652;23.040;2023-04-03T07:40:50;92318.69;;;14.76
28305;BMP280;15569;42.652;23.040;2023-04-03T07:43:17;92300.41;;;14.85
28305;BMP280;15569;42.652;23.040;2023-04-03T07:45:43;92303.13;;;14.55
28305;BMP280;15569;42.652;23.040;2023-04-03T07:48:09;92287.34;;;14.52
28305;BMP280;15569;42.652;23.040;2023-04-03T07:50:35;92277.66;;;14.76
28305;BMP280;15569;42.652;23.040;2023-04-03T07:53:01;92282.19;;;14.95
28305;BMP280;15569;42.652;23.040;2023-04-03T07:55:27;92283.66;;;14.13
28305;BMP280;15569;42.652;23.040;2023-04-03T07:57:52;92274.78;;;14.41
28305;BMP280;15569;42.652;23.040;2023-04-03T08:00:18;92265.22;;;14.14
28305;BMP280;15569;42.652;23.040;2023-04-03T08:02:44;92266.38;;;14.05
28305;BMP280;15569;42.652;23.040;2023-04-03T08:05:16;92266.03;;;14.18
28305;BMP280;15569;42.652;23.040;2023-04-03T08:07:42;92271.56;;;13.69
28305;BMP280;15569;42.652;23.040;2023-04-03T08:10:08;92257.75;;;13.63
28305;BMP280;15569;42.652;23.040;2023-04-03T08:12:34;92259.47;;;13.76
28305;BMP280;15569;42.652;23.040;2023-04-03T08:14:59;92252.56;;;13.99
28305;BMP280;15569;42.652;23.040;2023-04-03T08:17:26;92252.59;;;13.75
28305;BMP280;15569;42.652;23.040;2023-04-03T08:19:51;92253.28;;;13.74
28305;BMP280;15569;42.652;23.040;2023-04-03T08:22:17;92251.19;;;13.98
28305;BMP280;15569;42.652;23.040;2023-04-03T08:24:42;92241.41;;;13.39
28305;BMP280;15569;42.652;23.040;2023-04-03T08:27:07;92248.84;;;13.86
28305;BMP280;15569;42.652;23.040;2023-04-03T08:29:33;92251.56;;;13.86
28305;BMP280;15569;42.652;23.040;2023-04-03T08:31:58;92250.69;;;14.07
28305;BMP280;15569;42.652;23.040;2023-04-03T08:34:24;92240.53;;;13.57
28305;BMP280;15569;42.652;23.040;2023-04-03T08:36:49;92244.69;;;13.85
28305;BMP280;15569;42.652;23.040;2023-04-03T08:39:15;92244.81;;;14.17
28305;BMP280;15569;42.652;23.040;2023-04-03T08:41:42;92254.72;;;14.32
28305;BMP280;15569;42.652;23.040;2023-04-03T08:47:19;92245.97;;;14.67
28305;BMP280;15569;42.652;23.040;2023-04-03T08:50:13;92246.91;;;14.78
28305;BMP280;15569;42.652;23.040;2023-04-03T08:52:56;92232.81;;;14.58
28305;BMP280;15569;42.652;23.040;2023-04-03T08:55:33;92228.63;;;14.55
28305;BMP280;15569;42.652;23.040;2023-04-03T08:58:09;92228.19;;;14.36
28305;BMP280;15569;42.652;23.040;2023-04-03T09:00:57;92226.56;;;14.25
28305;BMP280;15569;42.652;23.040;2023-04-03T09:03:23;92219.00;;;14.54
28305;BMP280;15569;42.652;23.040;2023-04-03T09:11:25;92205.22;;;14.79
28305;BMP280;15569;42.652;23.040;2023-04-03T09:14:01;92204.06;;;13.99
28305;BMP280;15569;42.652;23.040;2023-04-03T09:21:41;92200.06;;;14.32
28305;BMP280;15569;42.652;23.040;2023-04-03T09:24:10;92195.16;;;14.26
28305;BMP280;15569;42.652;23.040;2023-04-03T09:26:52;92186.91;;;14.54
28305;BMP280;15569;42.652;23.040;2023-04-03T09:29:23;92190.38;;;14.57
28305;BMP280;15569;42.652;23.040;2023-04-03T09:31:52;92190.88;;;14.49
28305;BMP280;15569;42.652;23.040;2023-04-03T09:34:32;92185.91;;;14.42
28305;BMP280;15569;42.652;23.040;2023-04-03T09:37:02;92189.31;;;14.72
28305;BMP280;15569;42.652;23.040;2023-04-03T09:39:32;92167.63;;;14.80
28305;BMP280;15569;42.652;23.040;2023-04-03T09:42:21;92156.84;;;14.56
28305;BMP280;15569;42.652;23.040;2023-04-03T09:44:56;92169.44;;;14.37
28305;BMP280;15569;42.652;23.040;2023-04-03T09:47:30;92172.38;;;14.79
28305;BMP280;15569;42.652;23.040;2023-04-03T09:52:46;92175.94;;;14.86
28305;BMP280;15569;42.652;23.040;2023-04-03T09:55:26;92160.94;;;14.55
28305;BMP280;15569;42.652;23.040;2023-04-03T09:58:04;92163.34;;;15.04
28305;BMP280;15569;42.652;23.040;2023-04-03T10:00:35;92167.47;;;15.05
28305;BMP280;15569;42.652;23.040;2023-04-03T10:03:02;92156.81;;;14.86
28305;BMP280;15569;42.652;23.040;2023-04-03T10:05:37;92177.47;;;15.28
28305;BMP280;15569;42.652;23.040;2023-04-03T10:10:41;92165.44;;;14.74
28305;BMP280;15569;42.652;23.040;2023-04-03T10:13:20;92157.94;;;14.43
28305;BMP280;15569;42.652;23.040;2023-04-03T10:16:09;92152.41;;;15.06
28305;BMP280;15569;42.652;23.040;2023-04-03T10:21:23;92147.88;;;14.85
28305;BMP280;15569;42.652;23.040;2023-04-03T10:24:03;92157.13;;;14.68
28305;BMP280;15569;42.652;23.040;2023-04-03T10:26:44;92148.47;;;14.48
28305;BMP280;15569;42.652;23.040;2023-04-03T10:29:36;92153.28;;;14.50
28305;BMP280;15569;42.652;23.040;2023-04-03T10:34:53;92153.78;;;14.40
28305;BMP280;15569;42.652;23.040;2023-04-03T10:37:27;92147.22;;;13.92
28305;BMP280;15569;42.652;23.040;2023-04-03T10:40:25;92141.84;;;14.57
28305;BMP280;15569;42.652;23.040;2023-04-03T10:43:02;92128.16;;;14.25
28305;BMP280;15569;42.652;23.040;2023-04-03T10:45:46;92136.97;;;14.54
28305;BMP280;15569;42.652;23.040;2023-04-03T10:48:22;92134.25;;;14.22
28305;BMP280;15569;42.652;23.040;2023-04-03T10:51:09;92135.41;;;14.13
28305;BMP280;15569;42.652;23.040;2023-04-03T10:53:56;92133.13;;;14.33
28305;BMP280;15569;42.652;23.040;2023-04-03T10:56:38;92143.13;;;14.54
28305;BMP280;15569;42.652;23.040;2023-04-03T11:01:41;92139.63;;;14.50
28305;BMP280;15569;42.652;23.040;2023-04-03T11:04:08;92142.47;;;14.56
28305;BMP280;15569;42.652;23.040;2023-04-03T11:06:57;92146.78;;;14.65
28305;BMP280;15569;42.652;23.040;2023-04-03T11:09:28;92143.59;;;14.43
28305;BMP280;15569;42.652;23.040;2023-04-03T11:12:09;92135.72;;;14.59
28305;BMP280;15569;42.652;23.040;2023-04-03T11:14:37;92140.44;;;14.56
28305;BMP280;15569;42.652;23.040;2023-04-03T11:22:48;92125.50;;;14.93
28305;BMP280;15569;42.652;23.040;2023-04-03T11:25:25;92122.44;;;14.79
28305;BMP280;15569;42.652;23.040;2023-04-03T11:27:59;92116.19;;;14.72
28305;BMP280;15569;42.652;23.040;2023-04-03T11:35:47;92124.66;;;14.53
28305;BMP280;15569;42.652;23.040;2023-04-03T11:38:25;92125.88;;;14.79
28305;BMP280;15569;42.652;23.040;2023-04-03T11:40:53;92128.03;;;14.85
28305;BMP280;15569;42.652;23.040;2023-04-03T11:43:30;92123.97;;;14.86
28305;BMP280;15569;42.652;23.040;2023-04-03T11:46:00;92123.03;;;14.42
28305;BMP280;15569;42.652;23.040;2023-04-03T11:53:40;92139.16;;;14.93
28305;BMP280;15569;42.652;23.040;2023-04-03T12:01:53;92133.91;;;14.69
28305;BMP280;15569;42.652;23.040;2023-04-03T12:04:24;92128.44;;;14.71
28305;BMP280;15569;42.652;23.040;2023-04-03T12:06:53;92131.22;;;14.73
28305;BMP280;15569;42.652;23.040;2023-04-03T12:09:27;92122.63;;;14.55
28305;BMP280;15569;42.652;23.040;2023-04-03T12:11:55;92104.66;;;14.44
28305;BMP280;15569;42.652;23.040;2023-04-03T12:14:24;92104.19;;;14.22
28305;BMP280;15569;42.652;23.040;2023-04-03T12:16:52;92102.00;;;14.48
28305;BMP280;15569;42.652;23.040;2023-04-03T12:19:37;92103.41;;;14.17
28305;BMP280;15569;42.652;23.040;2023-04-03T12:22:12;92108.94;;;14.21
28305;BMP280;15569;42.652;23.040;2023-04-03T12:24:43;92109.81;;;14.30
28305;BMP280;15569;42.652;23.040;2023-04-03T12:27:27;92100.25;;;13.99
28305;BMP280;15569;42.652;23.040;2023-04-03T12:29:59;92100.75;;;14.21
28305;BMP280;15569;42.652;23.040;2023-04-03T12:45:27;92066.34;;;13.81
28305;BMP280;15569;42.652;23.040;2023-04-03T12:47:54;92057.34;;;13.74
28305;BMP280;15569;42.652;23.040;2023-04-03T12:50:24;92062.72;;;13.72
28305;BMP280;15569;42.652;23.040;2023-04-03T12:52:59;92058.09;;;14.08
28305;BMP280;15569;42.652;23.040;2023-04-03T12:55:25;92062.44;;;13.60
28305;BMP280;15569;42.652;23.040;2023-04-03T12:57:51;92062.47;;;13.32
28305;BMP280;15569;42.652;23.040;2023-04-03T13:00:42;92050.78;;;13.30
28305;BMP280;15569;42.652;23.040;2023-04-03T13:03:21;92065.84;;;13.59
28305;BMP280;15569;42.652;23.040;2023-04-03T13:05:47;92060.78;;;13.77
28305;BMP280;15569;42.652;23.040;2023-04-03T13:08:13;92053.78;;;13.68
28305;BMP280;15569;42.652;23.040;2023-04-03T13:13:15;92054.53;;;13.42
28305;BMP280;15569;42.652;23.040;2023-04-03T13:15:46;92038.66;;;13.35
28305;BMP280;15569;42.652;23.040;2023-04-03T13:20:49;92023.78;;;12.87
28305;BMP280;15569;42.652;23.040;2023-04-03T13:23:17;92021.81;;;12.63
28305;BMP280;15569;42.652;23.040;2023-04-03T13:25:46;92012.13;;;12.35
28305;BMP280;15569;42.652;23.040;2023-04-03T13:28:15;92023.84;;;12.39
28305;BMP280;15569;42.652;23.040;2023-04-03T13:30:55;92012.78;;;11.86
28305;BMP280;15569;42.652;23.040;2023-04-03T13:33:24;92018.13;;;12.06
28305;BMP280;15569;42.652;23.040;2023-04-03T13:36:02;92011.56;;;12.15
28305;BMP280;15569;42.652;23.040;2023-04-03T13:38:29;92003.00;;;12.01
28305;BMP280;15569;42.652;23.040;2023-04-03T13:41:00;92004.97;;;12.22
28305;BMP280;15569;42.652;23.040;2023-04-03T13:43:31;91997.00;;;11.82
28305;BMP280;15569;42.652;23.040;2023-04-03T13:51:05;92004.44;;;11.37
28305;BMP280;15569;42.652;23.040;2023-04-03T13:53:33;91998.63;;;11.68
28305;BMP280;15569;42.652;23.040;2023-04-03T13:58:30;91998.41;;;11.38
28305;BMP280;15569;42.652;23.040;2023-04-03T14:03:29;91986.91;;;11.63
28305;BMP280;15569;42.652;23.040;2023-04-03T14:05:55;91976.28;;;11.50
28305;BMP280;15569;42.652;23.040;2023-04-03T14:08:21;92005.16;;;11.37
28305;BMP280;15569;42.652;23.040;2023-04-03T14:10:47;92009.31;;;11.40
28305;BMP280;15569;42.652;23.040;2023-04-03T14:13:16;91979.09;;;11.52
28305;BMP280;15569;42.652;23.040;2023-04-03T14:15:43;91993.44;;;11.33
28305;BMP280;15569;42.652;23.040;2023-04-03T14:18:13;91982.91;;;11.66
28305;BMP280;15569;42.652;23.040;2023-04-03T14:20:40;91975.78;;;11.12
28305;BMP280;15569;42.652;23.040;2023-04-03T14:23:05;91975.28;;;11.39
28305;BMP280;15569;42.652;23.040;2023-04-03T14:25:31;91968.69;;;11.46
28305;BMP280;15569;42.652;23.040;2023-04-03T14:27:57;91958.13;;;11.35
28305;BMP280;15569;42.652;23.040;2023-04-03T14:30:28;91971.03;;;10.91
28305;BMP280;15569;42.652;23.040;2023-04-03T14:32:54;91943.00;;;11.08
28305;BMP280;15569;42.652;23.040;2023-04-03T14:35:21;91942.09;;;11.21
28305;BMP280;15569;42.652;23.040;2023-04-03T14:37:48;91962.81;;;11.32
28305;BMP280;15569;42.652;23.040;2023-04-03T14:40:20;91952.50;;;11.07
28305;BMP280;15569;42.652;23.040;2023-04-03T14:42:48;91946.31;;;11.04
28305;BMP280;15569;42.652;23.040;2023-04-03T14:45:14;91957.00;;;10.98
28305;BMP280;15569;42.652;23.040;2023-04-03T14:47:51;91943.59;;;11.04
28305;BMP280;15569;42.652;23.040;2023-04-03T14:50:20;91948.66;;;11.14
28305;BMP280;15569;42.652;23.040;2023-04-03T14:52:47;91949.81;;;10.87
28305;BMP280;15569;42.652;23.040;2023-04-03T14:55:15;91950.69;;;10.72
28305;BMP280;15569;42.652;23.040;2023-04-03T14:57:41;91920.72;;;10.70
28305;BMP280;15569;42.652;23.040;2023-04-03T15:00:18;91926.03;;;10.66
28305;BMP280;15569;42.652;23.040;2023-04-03T15:02:43;91935.31;;;11.00
28305;BMP280;15569;42.652;23.040;2023-04-03T15:05:10;91936.19;;;10.66
28305;BMP280;15569;42.652;23.040;2023-04-03T15:07:57;91946.56;;;10.71
28305;BMP280;15569;42.652;23.040;2023-04-03T15:10:27;91927.25;;;10.83
28305;BMP280;15569;42.652;23.040;2023-04-03T15:12:53;91938.59;;;10.77
28305;BMP280;15569;42.652;23.040;2023-04-03T15:15:21;91942.41;;;10.49
28305;BMP280;15569;42.652;23.040;2023-04-03T15:17:51;91937.25;;;10.98
28305;BMP280;15569;42.652;23.040;2023-04-03T15:20:22;91920.88;;;10.96
28305;BMP280;15569;42.652;23.040;2023-04-03T15:22:48;91919.94;;;10.87
28305;BMP280;15569;42.652;23.040;2023-04-03T15:25:13;91912.91;;;11.02
28305;BMP280;15569;42.652;23.040;2023-04-03T15:27:40;91896.69;;;10.82
28305;BMP280;15569;42.652;23.040;2023-04-03T15:30:10;91875.47;;;10.57
28305;BMP280;15569;42.652;23.040;2023-04-03T15:32:36;91871.72;;;10.47